Time;durP1;ratioP1;P1;durP2;ratioP2;P2;SDS_P1;SDS_P2;PMS_P1;PMS_P2;Temp;Humidity;BMP_temperature;BMP_pressure;BME280_temperature;BME280_humidity;BME280_pressure;Samples;Min_cycle;Max_cycle;Signal;HPM_P1;HPM_P2
2023/06/07 00:00:29;;;;;;;10.73;6.00;;;16.80;71.90;;;19.56;49.97;102020.81;5055368;28;20218;-65
2023/06/07 00:02:59;;;;;;;12.60;5.73;;;16.80;72.20;;;19.53;49.90;102020.41;5038293;28;20363;-66
2023/06/07 00:05:26;;;;;;;6.43;4.57;;;16.80;72.30;;;19.48;49.63;102029.03;5055388;28;20300;-66
2023/06/07 00:07:53;;;;;;;10.53;5.83;;;16.70;72.00;;;19.43;49.94;102022.63;5047800;28;20198;-65
2023/06/07 00:10:20;;;;;;;9.67;4.93;;;16.70;72.30;;;19.40;49.80;102020.34;5035264;28;20279;-65
2023/06/07 00:12:48;;;;;;;11.07;5.37;;;16.60;72.30;;;19.36;50.00;102024.47;5049087;28;20208;-66
2023/06/07 00:15:15;;;;;;;7.47;4.90;;;16.60;72.60;;;19.33;50.20;102014.16;5042627;28;20717;-65
2023/06/07 00:17:43;;;;;;;9.77;5.47;;;16.60;73.00;;;19.33;50.42;102019.47;5034714;28;20222;-66
2023/06/07 00:20:12;;;;;;;9.90;5.13;;;16.50;73.00;;;19.33;50.25;102020.31;5035042;28;20244;-65
2023/06/07 00:22:40;;;;;;;12.50;5.20;;;16.50;73.10;;;19.34;50.54;102018.47;5035090;28;20244;-66
2023/06/07 00:25:08;;;;;;;8.00;4.63;;;16.50;73.10;;;19.34;50.52;102021.16;5034613;28;20233;-66
2023/06/07 00:27:36;;;;;;;7.90;4.47;;;16.50;73.10;;;19.33;50.38;102025.66;5035058;28;20491;-65
2023/06/07 00:30:06;;;;;;;8.83;5.10;;;16.50;73.20;;;19.35;50.66;102020.94;5036003;28;20202;-66
2023/06/07 00:32:33;;;;;;;13.87;5.33;;;16.50;73.20;;;19.37;50.52;102031.47;5035049;28;20178;-65
2023/06/07 00:35:00;;;;;;;11.40;5.00;;;16.60;73.20;;;19.37;50.60;102026.13;5034425;28;20741;-65
2023/06/07 00:37:27;;;;;;;7.60;4.53;;;16.60;72.90;;;19.37;50.61;102028.78;5034851;28;20659;-65
2023/06/07 00:39:54;;;;;;;7.87;4.83;;;16.60;73.40;;;19.40;50.34;102021.19;5034999;28;20240;-66
2023/06/07 00:42:21;;;;;;;11.27;5.47;;;16.60;73.10;;;19.45;50.49;102024.09;5044365;28;20202;-66
2023/06/07 00:44:48;;;;;;;11.23;5.47;;;16.70;73.40;;;19.50;50.47;102024.31;5034237;28;20257;-65
2023/06/07 00:47:17;;;;;;;9.97;5.00;;;16.70;73.10;;;19.54;50.34;102016.69;5052036;28;20297;-65
2023/06/07 00:49:44;;;;;;;11.80;5.13;;;16.70;72.80;;;19.53;49.83;102020.41;5054325;28;20193;-65
2023/06/07 00:52:12;;;;;;;8.33;4.80;;;16.80;72.60;;;19.51;49.86;102023.28;5054852;28;20228;-65
2023/06/07 00:54:40;;;;;;;11.47;4.97;;;16.70;72.50;;;19.47;50.04;102026.53;5054128;28;20284;-65
2023/06/07 00:57:07;;;;;;;10.13;5.10;;;16.70;72.70;;;19.43;50.22;102030.66;5054099;28;20247;-66
2023/06/07 00:59:35;;;;;;;12.60;5.23;;;16.70;72.70;;;19.41;50.43;102024.69;5054524;28;20201;-65
2023/06/07 01:02:04;;;;;;;8.67;5.03;;;16.60;72.90;;;19.39;50.33;102029.41;5053029;28;20276;-66
2023/06/07 01:04:34;;;;;;;7.43;4.70;;;16.60;73.00;;;19.37;50.53;102026.91;5046610;28;20301;-65
2023/06/07 01:07:04;;;;;;;8.27;4.90;;;16.60;73.00;;;19.33;50.14;102011.47;5034040;28;20190;-65
2023/06/07 01:09:31;;;;;;;10.93;5.03;;;16.60;73.10;;;19.29;50.57;102019.06;5034315;28;20715;-66
2023/06/07 01:12:00;;;;;;;10.23;4.47;;;16.50;73.20;;;19.27;50.21;102017.63;5033927;28;20222;-66
2023/06/07 01:14:28;;;;;;;8.87;4.87;;;16.50;73.10;;;19.24;50.76;102010.00;5039130;28;20645;-65
2023/06/07 01:16:57;;;;;;;9.90;4.43;;;16.50;73.50;;;19.20;50.67;102014.09;5054047;28;20189;-65
2023/06/07 01:19:29;;;;;;;11.13;5.07;;;16.40;73.60;;;19.17;50.73;102011.84;5052319;28;20214;-65
2023/06/07 01:22:04;;;;;;;9.73;4.93;;;16.40;73.80;;;19.11;50.65;102016.09;5053643;28;20549;-65
2023/06/07 01:24:35;;;;;;;8.50;4.90;;;16.30;73.80;;;19.09;50.86;102012.03;5053739;28;20304;-65
2023/06/07 01:27:07;;;;;;;15.07;5.10;;;16.30;73.80;;;19.08;50.64;102026.38;5053746;28;20198;-65
2023/06/07 01:29:35;;;;;;;8.80;4.73;;;16.30;73.50;;;19.05;50.76;102027.59;5053890;28;20178;-68
2023/06/07 01:32:06;;;;;;;10.20;4.97;;;16.30;73.70;;;19.04;51.15;102019.81;5053851;28;20225;-65
2023/06/07 01:34:35;;;;;;;10.07;5.00;;;16.30;73.80;;;19.03;50.92;102023.47;5053268;28;20284;-66
2023/06/07 01:37:03;;;;;;;9.23;5.30;;;16.20;73.80;;;18.99;50.90;102022.22;5051890;28;20288;-66
2023/06/07 01:39:33;;;;;;;9.00;4.70;;;16.20;73.90;;;18.97;50.92;102018.94;5053634;28;20722;-64
2023/06/07 01:42:02;;;;;;;9.27;4.90;;;16.20;74.10;;;18.94;51.17;102026.28;5052298;28;20210;-66
2023/06/07 01:44:31;;;;;;;12.70;4.90;;;16.20;74.30;;;18.93;51.18;102018.50;5053347;28;20326;-64
2023/06/07 01:46:58;;;;;;;11.73;4.57;;;16.10;74.20;;;18.91;51.08;102021.38;5053398;28;20698;-64
2023/06/07 01:49:24;;;;;;;12.90;5.37;;;16.10;74.00;;;18.90;51.08;102021.56;5053150;28;20281;-65
2023/06/07 01:51:51;;;;;;;10.53;4.57;;;16.10;74.30;;;18.86;51.05;102015.81;5053029;28;20221;-64
2023/06/07 01:54:19;;;;;;;13.90;5.10;;;16.10;74.30;;;18.82;51.01;102022.56;5038706;28;20591;-65
2023/06/07 01:57:04;;;;;;;12.93;5.13;;;16.10;74.40;;;18.77;51.21;102014.31;5053688;28;20232;-65
2023/06/07 01:59:45;;;;;;;13.83;5.20;;;16.00;74.60;;;18.76;51.40;102018.00;5053588;28;20190;-64
2023/06/07 02:02:23;;;;;;;7.67;4.20;;;16.00;74.60;;;18.73;51.36;102010.38;5053646;28;20277;-65
2023/06/07 02:04:57;;;;;;;11.37;4.90;;;16.00;74.60;;;18.71;51.36;102019.59;5053004;28;20296;-65
2023/06/07 02:07:30;;;;;;;9.30;4.50;;;15.90;74.70;;;18.68;51.51;102015.50;5050235;28;20285;-65
2023/06/07 02:10:00;;;;;;;9.63;5.10;;;15.90;74.90;;;18.71;51.71;102014.25;5034127;28;20196;-65
2023/06/07 02:12:31;;;;;;;8.63;5.27;;;15.90;75.20;;;18.70;51.67;102010.78;5034003;28;20182;-64
2023/06/07 02:15:00;;;;;;;11.37;5.80;;;15.90;75.20;;;18.71;51.57;102001.75;5032740;28;20214;-65
2023/06/07 02:17:28;;;;;;;11.00;4.80;;;15.90;75.10;;;18.72;51.62;102010.59;5036438;28;20198;-65
2023/06/07 02:19:55;;;;;;;9.00;4.60;;;15.90;75.30;;;18.71;51.52;102008.94;5037363;28;20198;-65
2023/06/07 02:22:22;;;;;;;13.23;6.00;;;15.90;75.20;;;18.70;51.90;102008.13;5037339;28;20372;-65
2023/06/07 02:24:50;;;;;;;9.30;4.77;;;15.90;75.40;;;18.68;51.71;102007.50;5036957;28;20249;-66
2023/06/07 02:27:17;;;;;;;12.43;4.90;;;15.90;75.30;;;18.66;51.78;102003.38;5055656;28;20291;-64
2023/06/07 02:29:45;;;;;;;11.43;5.10;;;15.90;75.40;;;18.63;51.92;102012.59;5057332;28;20270;-65
2023/06/07 02:32:12;;;;;;;12.33;5.33;;;15.90;75.60;;;18.63;51.92;102007.28;5056862;28;20277;-64
2023/06/07 02:34:39;;;;;;;10.47;5.07;;;15.80;75.50;;;18.63;51.89;102006.44;5056131;28;20227;-65
2023/06/07 02:37:06;;;;;;;12.43;6.27;;;15.80;75.50;;;18.64;52.16;102002.72;5057204;28;20623;-64
2023/06/07 02:39:33;;;;;;;9.13;5.30;;;15.80;75.70;;;18.64;52.31;102008.91;5056940;28;20217;-65
2023/06/07 02:42:00;;;;;;;7.50;4.60;;;15.90;75.90;;;18.67;52.32;102008.50;5052908;28;20706;-65
2023/06/07 02:44:28;;;;;;;12.03;5.10;;;15.90;76.00;;;18.74;52.47;102009.38;5036612;28;20637;-63
2023/06/07 02:46:56;;;;;;;14.93;5.80;;;15.90;75.60;;;18.77;52.19;102003.66;5037121;28;20197;-64
2023/06/07 02:49:23;;;;;;;13.47;5.53;;;16.00;75.50;;;18.79;51.88;102006.13;5037127;28;20194;-64
2023/06/07 02:51:50;;;;;;;12.27;5.20;;;16.00;75.20;;;18.77;51.78;102003.66;5036749;28;20190;-67
2023/06/07 02:54:19;;;;;;;15.80;5.93;;;16.00;75.20;;;18.75;51.75;102003.03;5036481;28;20197;-67
2023/06/07 02:56:46;;;;;;;8.63;5.20;;;16.00;75.20;;;18.75;51.83;102004.88;5053267;28;20203;-65
2023/06/07 02:59:13;;;;;;;8.57;5.07;;;15.90;75.10;;;18.71;51.68;101999.09;5049619;28;20278;-68
2023/06/07 03:01:40;;;;;;;10.83;5.87;;;15.90;75.10;;;18.69;51.84;102001.13;5046744;28;20201;-65
2023/06/07 03:04:08;;;;;;;11.83;5.87;;;15.90;75.20;;;18.68;51.80;101998.69;5055856;28;20622;-66
2023/06/07 03:06:41;;;;;;;13.73;5.80;;;15.90;75.30;;;18.66;51.90;101995.38;5055553;28;20228;-66
2023/06/07 03:09:08;;;;;;;10.10;5.17;;;15.90;75.40;;;18.62;51.62;102005.59;5038832;28;20689;-66
2023/06/07 03:11:36;;;;;;;10.97;5.60;;;15.80;75.30;;;18.60;51.90;101996.16;5035729;28;20202;-67
2023/06/07 03:14:03;;;;;;;11.83;5.67;;;15.80;75.60;;;18.58;52.20;101998.19;5043253;28;20281;-65
2023/06/07 03:16:30;;;;;;;11.13;6.00;;;15.80;75.80;;;18.55;51.93;101991.41;5036295;28;20643;-66
2023/06/07 03:18:57;;;;;;;14.23;5.80;;;15.80;75.90;;;18.54;52.21;101989.75;5041886;28;20204;-65
2023/06/07 03:21:25;;;;;;;13.67;5.50;;;15.70;75.70;;;18.52;51.94;101988.31;5056452;28;20190;-66
2023/06/07 03:23:53;;;;;;;13.83;5.73;;;15.70;75.70;;;18.48;52.28;101982.53;5055878;28;20285;-66
2023/06/07 03:26:20;;;;;;;15.20;6.53;;;15.70;75.90;;;18.46;52.29;101987.25;5055748;28;20214;-66
2023/06/07 03:28:48;;;;;;;12.20;4.90;;;15.60;75.90;;;18.47;52.25;102001.41;5041514;28;20209;-65
2023/06/07 03:31:15;;;;;;;11.20;5.23;;;15.70;76.10;;;18.46;52.49;101994.41;5047180;28;20232;-67
2023/06/07 03:33:42;;;;;;;13.03;5.47;;;15.70;76.20;;;18.46;52.19;101989.91;5055711;28;20192;-66
2023/06/07 03:36:09;;;;;;;14.37;5.13;;;15.60;76.10;;;18.45;52.37;101985.56;5055810;28;20292;-67
2023/06/07 03:38:37;;;;;;;11.73;5.60;;;15.60;76.20;;;18.46;52.33;101979.25;5049609;28;20566;-67
2023/06/07 03:41:04;;;;;;;12.80;5.73;;;15.60;76.30;;;18.46;52.39;101994.41;5045476;28;20202;-69
2023/06/07 03:43:31;;;;;;;10.17;5.07;;;15.60;76.30;;;18.44;52.41;101988.44;5055484;28;20738;-66
2023/06/07 03:45:58;;;;;;;13.60;5.93;;;15.60;76.40;;;18.44;52.65;101986.59;5055596;28;20712;-68
2023/06/07 03:48:25;;;;;;;9.07;4.47;;;15.60;76.50;;;18.44;52.74;101991.09;5055693;28;20558;-65
2023/06/07 03:50:52;;;;;;;8.53;5.07;;;15.60;76.90;;;18.47;52.59;101993.41;5055280;28;20297;-65
2023/06/07 03:53:19;;;;;;;9.33;5.93;;;15.60;76.50;;;18.47;52.54;101988.09;5054397;28;20190;-64
2023/06/07 03:55:48;;;;;;;11.53;5.43;;;15.60;76.50;;;18.48;52.91;101998.53;5055449;28;20300;-66
2023/06/07 03:58:18;;;;;;;8.53;4.60;;;15.60;77.00;;;18.55;53.11;102004.75;5055099;28;20190;-66
2023/06/07 04:00:47;;;;;;;15.33;5.27;;;15.70;77.10;;;18.67;52.63;101997.84;5055322;28;20312;-66
2023/06/07 04:03:14;;;;;;;14.27;5.23;;;15.80;76.90;;;18.79;52.52;102001.59;5053138;28;20256;-66
2023/06/07 04:05:41;;;;;;;9.73;4.93;;;15.90;76.40;;;18.86;52.06;101996.31;5055033;28;20222;-64
2023/06/07 04:08:09;;;;;;;11.47;5.93;;;15.90;75.90;;;18.89;51.87;101999.41;5045060;28;20194;-66
2023/06/07 04:10:36;;;;;;;9.60;4.83;;;16.00;75.70;;;18.92;52.04;101999.00;5035138;28;20226;-66
2023/06/07 04:13:05;;;;;;;12.50;5.50;;;16.10;75.80;;;18.99;51.91;102007.06;5034646;28;20191;-66
2023/06/07 04:15:31;;;;;;;14.20;4.83;;;16.10;75.40;;;19.02;51.66;102003.16;5034904;28;20571;-66
2023/06/07 04:17:58;;;;;;;11.87;5.43;;;16.20;75.20;;;19.03;51.50;102010.13;5040265;28;20186;-64
2023/06/07 04:20:28;;;;;;;15.03;5.67;;;16.20;75.00;;;19.00;51.42;101999.84;5054821;28;20200;-66
2023/06/07 04:22:55;;;;;;;12.77;4.97;;;16.20;75.00;;;18.97;51.41;102005.59;5054452;28;20198;-66
2023/06/07 04:25:31;;;;;;;9.90;5.70;;;16.10;74.80;;;18.93;51.70;102008.66;5054959;28;20260;-65
2023/06/07 04:28:01;;;;;;;12.13;5.67;;;16.10;75.10;;;18.94;51.50;102004.16;5054802;28;20280;-66
2023/06/07 04:30:36;;;;;;;14.90;6.07;;;16.10;75.10;;;18.91;51.50;102005.38;5054734;28;20188;-64
2023/06/07 04:33:08;;;;;;;15.57;6.10;;;16.10;75.30;;;18.90;51.54;101997.53;5043082;28;20198;-66
2023/06/07 04:35:36;;;;;;;8.90;4.93;;;16.00;75.20;;;18.89;51.81;102004.75;5034832;28;20273;-64
2023/06/07 04:38:03;;;;;;;11.27;4.93;;;16.00;75.50;;;18.91;51.90;102009.88;5033988;28;20210;-67
2023/06/07 04:40:30;;;;;;;10.57;5.20;;;16.10;75.50;;;18.92;51.78;102007.00;5040179;28;20244;-67
2023/06/07 04:43:05;;;;;;;13.63;5.90;;;16.00;75.60;;;18.93;51.64;102003.31;5053766;28;20288;-65
2023/06/07 04:45:36;;;;;;;18.57;4.93;;;16.10;75.60;;;18.94;51.51;102010.28;5055032;28;20217;-66
2023/06/07 04:48:04;;;;;;;11.20;5.53;;;16.10;75.60;;;18.95;51.57;102005.78;5053664;28;20222;-66
2023/06/07 04:50:33;;;;;;;9.03;4.40;;;16.10;75.50;;;18.97;51.91;102002.94;5054844;28;20198;-66
2023/06/07 04:53:03;;;;;;;13.50;5.60;;;16.10;75.70;;;19.00;51.79;102005.19;5054053;28;20209;-67
2023/06/07 04:55:34;;;;;;;13.13;5.50;;;16.10;75.80;;;19.03;51.63;102007.47;5053990;28;20312;-67
2023/06/07 04:58:05;;;;;;;14.53;6.10;;;16.10;75.50;;;19.04;51.64;102001.91;5043915;28;20222;-66
2023/06/07 05:00:34;;;;;;;13.77;7.23;;;16.10;75.40;;;19.05;51.79;102002.75;5034885;28;20198;-66
2023/06/07 05:03:06;;;;;;;13.60;6.07;;;16.20;75.60;;;19.06;51.60;102007.91;5053557;28;20296;-66
2023/06/07 05:05:33;;;;;;;13.20;5.67;;;16.10;75.50;;;19.05;51.43;102006.25;5053922;28;20222;-66
2023/06/07 05:08:00;;;;;;;10.30;5.57;;;16.20;75.70;;;19.06;51.70;102013.25;5045421;28;20195;-67
2023/06/07 05:10:27;;;;;;;14.03;5.53;;;16.20;75.70;;;19.08;51.74;102016.53;5033827;28;20197;-65
2023/06/07 05:12:55;;;;;;;12.87;5.73;;;16.20;76.00;;;19.13;51.56;102013.25;5047145;28;20204;-67
2023/06/07 05:15:23;;;;;;;10.47;4.83;;;16.20;75.70;;;19.18;51.64;102010.81;5039856;28;20639;-66
2023/06/07 05:17:53;;;;;;;10.67;5.63;;;16.20;75.80;;;19.25;51.65;102012.50;5033789;28;20617;-65
2023/06/07 05:20:24;;;;;;;8.60;5.10;;;16.30;75.80;;;19.31;51.41;102016.19;5033798;28;20214;-65
2023/06/07 05:22:52;;;;;;;13.90;5.03;;;16.40;75.60;;;19.35;51.34;102017.47;5036811;28;20193;-64
2023/06/07 05:25:19;;;;;;;11.00;5.10;;;16.40;76.40;;;19.39;51.39;102024.91;5051757;28;20259;-65
2023/06/07 05:27:49;;;;;;;12.93;5.30;;;16.40;75.50;;;19.42;51.23;102013.78;5034782;28;20570;-65
2023/06/07 05:30:36;;;;;;;13.73;5.63;;;16.40;75.40;;;19.45;51.25;102015.25;5033546;28;20282;-66
2023/06/07 05:33:05;;;;;;;12.73;5.23;;;16.50;75.40;;;19.48;51.38;102013.00;5033196;28;20282;-66
2023/06/07 05:35:33;;;;;;;11.53;5.30;;;16.50;75.50;;;19.53;51.10;102007.06;5033333;28;20257;-66
2023/06/07 05:38:00;;;;;;;17.00;5.00;;;16.60;75.60;;;19.58;51.33;102008.09;5033303;28;20242;-67
2023/06/07 05:40:27;;;;;;;11.67;4.97;;;16.60;75.60;;;19.65;51.26;102008.13;5038339;28;20193;-67
2023/06/07 05:42:56;;;;;;;14.77;6.20;;;16.60;75.60;;;19.70;50.90;102008.34;5039769;28;20247;-67
2023/06/07 05:45:23;;;;;;;12.37;6.43;;;16.70;75.70;;;19.75;51.28;102011.22;5032835;28;20542;-66
2023/06/07 05:47:51;;;;;;;10.60;5.10;;;16.70;75.70;;;19.81;51.19;102018.41;5033212;28;20194;-66
2023/06/07 05:50:20;;;;;;;9.93;5.80;;;16.80;75.60;;;19.88;51.14;102024.59;5032832;28;20198;-66
2023/06/07 05:52:56;;;;;;;13.37;5.73;;;16.80;75.60;;;19.96;51.09;102024.41;5031859;28;20190;-67
2023/06/07 05:55:25;;;;;;;18.63;7.50;;;16.90;75.70;;;20.06;50.67;102032.03;5037016;28;20252;-66
2023/06/07 05:57:52;;;;;;;13.73;5.83;;;17.00;75.30;;;20.10;50.63;102026.06;5032901;28;20190;-66
2023/06/07 06:00:20;;;;;;;14.23;6.20;;;17.10;74.90;;;20.22;50.54;102032.47;5033114;28;20188;-65
2023/06/07 06:02:47;;;;;;;14.03;6.73;;;17.20;74.70;;;20.35;50.10;102025.47;5051032;28;20190;-65
2023/06/07 06:05:15;;;;;;;12.07;5.27;;;17.40;74.50;;;20.43;50.30;102027.91;5052883;28;20218;-67
2023/06/07 06:07:44;;;;;;;11.40;5.70;;;17.50;74.10;;;20.53;49.68;102028.31;5046495;28;20265;-66
2023/06/07 06:10:12;;;;;;;11.80;5.53;;;17.50;73.80;;;20.66;49.99;102030.94;5045689;28;20225;-66
2023/06/07 06:12:39;;;;;;;10.90;5.37;;;17.60;73.70;;;20.79;49.63;102022.91;5052767;28;20269;-67
2023/06/07 06:15:07;;;;;;;9.77;4.70;;;17.70;73.50;;;20.93;49.46;102025.34;5041211;28;20298;-66
2023/06/07 06:17:34;;;;;;;14.60;5.60;;;17.80;73.20;;;21.07;48.90;102020.78;5033100;28;20198;-66
2023/06/07 06:20:02;;;;;;;12.30;5.20;;;18.00;73.00;;;21.20;48.91;102030.63;5043722;28;20190;-67
2023/06/07 06:22:30;;;;;;;12.77;4.97;;;18.10;72.80;;;21.30;48.66;102031.81;5052835;28;20186;-66
2023/06/07 06:24:58;;;;;;;10.77;5.00;;;18.20;72.60;;;21.41;48.22;102041.88;5037104;28;20719;-67
2023/06/07 06:27:25;;;;;;;12.37;5.93;;;18.30;72.20;;;21.50;47.94;102032.53;5052793;28;20214;-66
2023/06/07 06:29:52;;;;;;;12.60;7.10;;;18.40;71.90;;;21.62;47.70;102031.84;5052820;28;20696;-66
2023/06/07 06:32:19;;;;;;;14.67;7.10;;;18.40;71.60;;;21.73;47.36;102026.63;5052413;28;20574;-66
2023/06/07 06:34:47;;;;;;;16.23;7.23;;;18.50;72.10;;;21.83;47.08;102031.50;5051969;28;20263;-65
2023/06/07 06:37:15;;;;;;;11.67;5.77;;;18.60;71.10;;;21.94;47.17;102038.91;5052066;28;20290;-67
2023/06/07 06:39:42;;;;;;;18.37;7.87;;;18.60;71.10;;;22.07;46.30;102038.78;5032778;28;20205;-66
2023/06/07 06:42:11;;;;;;;10.50;6.43;;;18.80;70.70;;;22.17;46.44;102033.75;5051017;28;20260;-67
2023/06/07 06:44:38;;;;;;;11.90;6.43;;;18.80;70.10;;;22.23;46.04;102027.50;5051721;28;20241;-66
2023/06/07 06:47:06;;;;;;;10.60;4.87;;;18.90;69.90;;;22.32;45.91;102033.44;5052040;28;20579;-66
2023/06/07 06:49:33;;;;;;;15.57;8.80;;;19.00;69.60;;;22.40;45.64;102033.97;5051927;28;20633;-66
2023/06/07 06:52:00;;;;;;;13.53;5.13;;;19.10;69.60;;;22.51;45.55;102030.53;5046246;28;20277;-66
2023/06/07 06:54:27;;;;;;;12.47;5.70;;;19.10;68.80;;;22.55;45.02;102031.78;5051069;28;20240;-63
2023/06/07 06:56:54;;;;;;;10.27;5.20;;;19.20;68.40;;;22.55;44.82;102036.31;5052058;28;20234;-67
2023/06/07 06:59:23;;;;;;;13.60;6.50;;;19.20;67.70;;;22.55;44.93;102037.13;5052061;28;20673;-65
2023/06/07 07:01:51;;;;;;;10.10;6.13;;;19.20;67.40;;;22.55;44.71;102031.78;5051857;28;20277;-66
2023/06/07 07:04:19;;;;;;;12.07;6.10;;;19.30;67.50;;;22.59;44.56;102038.31;5054434;28;20218;-65
2023/06/07 07:06:46;;;;;;;13.70;5.00;;;19.30;67.40;;;22.69;44.58;102038.69;5053961;28;20209;-65
2023/06/07 07:09:13;;;;;;;11.67;5.83;;;19.40;67.50;;;22.84;44.55;102036.44;5037609;28;20290;-65
2023/06/07 07:11:40;;;;;;;11.13;5.47;;;19.50;67.50;;;23.04;44.08;102046.13;5035939;28;20198;-64
2023/06/07 07:14:07;;;;;;;12.00;4.87;;;19.60;67.00;;;23.24;43.70;102038.66;5034744;28;20203;-66
2023/06/07 07:16:36;;;;;;;9.53;3.70;;;19.70;66.90;;;23.49;43.33;102034.84;5049323;28;20205;-67
2023/06/07 07:19:05;;;;;;;12.70;4.43;;;19.90;66.50;;;23.72;42.83;102039.50;5056454;28;20197;-66
2023/06/07 07:21:32;;;;;;;7.70;4.67;;;20.10;65.60;;;23.90;42.63;102033.19;5055516;28;20250;-65
2023/06/07 07:23:59;;;;;;;7.80;3.93;;;20.30;65.60;;;24.08;41.55;102044.72;5055424;28;20277;-65
2023/06/07 07:26:27;;;;;;;14.47;5.77;;;20.40;64.30;;;24.16;41.18;102036.31;5055299;28;20238;-64
2023/06/07 07:28:54;;;;;;;9.00;4.80;;;20.60;63.90;;;24.26;41.16;102045.69;5053615;28;20252;-65
2023/06/07 07:31:21;;;;;;;8.63;4.13;;;20.70;63.30;;;24.34;40.91;102042.66;5035738;28;20194;-65
2023/06/07 07:33:50;;;;;;;16.87;8.17;;;20.80;63.10;;;24.43;40.80;102043.94;5037853;28;20222;-66
2023/06/07 07:36:17;;;;;;;18.00;4.70;;;20.80;62.60;;;24.49;40.64;102045.69;5050990;28;20215;-66
2023/06/07 07:38:45;;;;;;;12.13;5.33;;;20.90;62.80;;;24.56;40.48;102046.41;5047725;28;20198;-66
2023/06/07 07:41:14;;;;;;;6.37;4.00;;;21.00;62.70;;;24.67;40.60;102048.28;5046641;28;20589;-68
2023/06/07 07:43:41;;;;;;;6.77;4.17;;;21.10;61.80;;;24.77;40.22;102048.53;5055795;28;20220;-66
2023/06/07 07:46:08;;;;;;;8.83;4.10;;;21.20;61.60;;;24.89;39.97;102052.84;5054665;28;20637;-66
2023/06/07 07:48:35;;;;;;;9.23;4.53;;;21.30;61.10;;;25.02;39.76;102049.06;5055178;28;20198;-66
2023/06/07 07:51:07;;;;;;;11.10;4.13;;;21.40;60.70;;;25.14;39.08;102047.16;5050254;28;20265;-65
2023/06/07 07:53:34;;;;;;;9.83;4.80;;;21.60;61.30;;;25.17;38.86;102057.47;5038516;28;20640;-66
2023/06/07 07:56:01;;;;;;;8.13;4.33;;;21.70;59.20;;;25.14;38.25;102055.25;5044866;28;20227;-66
2023/06/07 07:58:28;;;;;;;11.70;4.10;;;21.70;58.70;;;25.17;38.28;102054.78;5053444;28;20587;-65
2023/06/07 08:00:56;;;;;;;8.27;4.20;;;21.70;59.00;;;25.23;37.82;102053.81;5053930;28;20277;-64
2023/06/07 08:03:23;;;;;;;6.70;4.17;;;21.70;58.30;;;25.29;38.29;102052.06;5049900;28;20276;-67
2023/06/07 08:05:50;;;;;;;8.13;3.93;;;21.70;58.40;;;25.38;38.52;102058.69;5053234;28;20225;-67
2023/06/07 08:08:18;;;;;;;9.73;3.70;;;21.80;58.70;;;25.54;38.36;102049.88;5048603;28;20203;-67
2023/06/07 08:10:46;;;;;;;10.73;4.50;;;21.90;59.00;;;25.69;37.48;102057.44;5046850;28;20277;-64
2023/06/07 08:13:13;;;;;;;9.10;4.30;;;22.10;58.40;;;25.94;37.76;102053.28;5046468;28;20218;-64
2023/06/07 08:15:40;;;;;;;11.27;5.27;;;22.20;58.20;;;26.55;36.64;102057.81;5044075;28;20292;-66
2023/06/07 08:18:07;;;;;;;8.03;4.93;;;22.40;57.50;;;27.00;35.56;102049.53;5043414;28;20286;-65
2023/06/07 08:20:36;;;;;;;8.03;4.37;;;22.60;57.60;;;27.54;35.30;102050.47;5044951;28;20241;-66
2023/06/07 08:23:03;;;;;;;12.30;6.30;;;22.90;57.10;;;28.10;34.05;102044.50;5044881;28;20661;-65
2023/06/07 08:25:31;;;;;;;8.17;4.17;;;23.20;55.90;;;28.64;33.54;102045.19;5047743;28;20255;-67
2023/06/07 08:27:58;;;;;;;7.70;4.13;;;23.60;55.20;;;29.20;32.19;102050.88;5033166;28;20206;-66
2023/06/07 08:30:25;;;;;;;11.70;5.07;;;24.00;53.70;;;29.83;30.23;102046.97;5033969;28;20225;-66
2023/06/07 08:32:52;;;;;;;5.40;4.10;;;24.30;51.60;;;30.35;30.38;102042.09;5033292;28;20191;-65
2023/06/07 08:35:20;;;;;;;7.37;4.30;;;24.70;51.90;;;31.14;29.80;102041.31;5032380;28;20740;-65
2023/06/07 08:37:47;;;;;;;8.93;4.73;;;25.10;51.30;;;31.97;28.20;102040.25;5032840;28;20652;-65
2023/06/07 08:40:17;;;;;;;7.67;4.13;;;25.60;50.70;;;32.70;27.42;102038.19;5042123;28;20220;-66
2023/06/07 08:42:46;;;;;;;6.97;4.80;;;26.10;48.60;;;33.70;25.90;102037.13;5050005;28;20651;-65
2023/06/07 08:45:16;;;;;;;6.13;4.97;;;26.70;47.10;;;34.54;25.10;102034.00;5036029;28;20214;-66
2023/06/07 08:47:44;;;;;;;15.30;8.70;;;27.30;46.20;;;35.21;24.58;102047.97;5045481;28;20244;-66
2023/06/07 08:50:13;;;;;;;9.43;4.93;;;27.90;45.60;;;35.69;24.30;102040.84;5052515;28;20290;-67
2023/06/07 08:52:44;;;;;;;5.60;3.27;;;28.50;43.80;;;35.79;23.63;102035.09;5053732;28;20561;-64
2023/06/07 08:55:11;;;;;;;9.07;4.27;;;28.90;42.90;;;35.89;23.86;102043.09;5053245;28;20532;-67
2023/06/07 08:57:39;;;;;;;7.50;4.07;;;29.30;41.50;;;35.78;23.47;102036.22;5053325;28;20194;-67
2023/06/07 09:00:11;;;;;;;9.07;4.57;;;29.40;39.60;;;35.86;23.74;102038.22;5053210;28;20193;-66
2023/06/07 09:02:38;;;;;;;9.17;4.27;;;29.60;39.30;;;36.30;22.28;102042.06;5050395;28;20260;-66
2023/06/07 09:05:06;;;;;;;10.07;6.87;;;29.70;39.30;;;36.52;21.32;102039.25;5052019;28;20217;-67
2023/06/07 09:07:33;;;;;;;9.07;5.07;;;29.80;37.10;;;36.35;22.02;102042.69;5036141;28;20663;-66
2023/06/07 09:10:00;;;;;;;5.67;4.13;;;29.80;37.40;;;36.29;22.89;102045.91;5052347;28;20669;-66
2023/06/07 09:12:29;;;;;;;6.20;4.20;;;30.00;37.90;;;36.75;21.60;102043.56;5054456;28;20206;-65
2023/06/07 09:14:56;;;;;;;7.77;4.47;;;30.10;37.80;;;37.32;21.59;102041.56;5049678;28;20214;-64
2023/06/07 09:17:52;;;;;;;7.07;4.32;;;30.40;37.30;;;37.75;21.45;102034.09;5046900;28;20196;-66
2023/06/07 09:20:21;;;;;;;8.05;4.93;;;30.70;36.20;;;38.27;20.55;102045.03;5050581;28;20204;-66
2023/06/07 09:23:01;;;;;;;6.57;4.28;;;30.90;36.60;;;39.08;20.10;102037.34;5033028;28;20256;-67
2023/06/07 09:25:30;;;;;;;7.93;4.80;;;31.20;35.40;;;39.94;19.09;102033.84;5050848;28;20218;-65
2023/06/07 09:27:57;;;;;;;8.75;4.53;;;31.50;35.90;;;40.55;17.76;102030.06;5047466;28;21059;-65
2023/06/07 09:30:25;;;;;;;7.50;4.72;;;32.00;33.90;;;40.62;18.19;102029.47;5040926;28;20286;-65
2023/06/07 09:32:53;;;;;;;5.97;4.47;;;32.50;33.30;;;40.48;18.38;102027.88;5046463;28;20655;-63
2023/06/07 09:35:21;;;;;;;10.30;5.15;;;32.60;32.60;;;40.64;18.39;102027.97;5034285;28;20272;-65
2023/06/07 09:37:51;;;;;;;12.88;5.35;;;32.80;32.20;;;40.88;17.92;102027.16;5033809;28;20248;-66
2023/06/07 09:40:18;;;;;;;12.82;9.25;;;33.00;31.50;;;41.18;18.03;102023.75;5036531;28;20267;-66
2023/06/07 09:42:57;;;;;;;8.02;5.15;;;33.30;32.00;;;41.83;17.30;102024.44;5051578;28;20206;-66
2023/06/07 09:45:25;;;;;;;12.23;8.27;;;33.60;31.60;;;42.23;16.90;102011.25;5053074;28;20249;-64
2023/06/07 09:48:03;;;;;;;11.48;5.93;;;33.80;30.80;;;42.60;16.73;102010.97;5051091;28;20217;-65
2023/06/07 09:50:31;;;;;;;10.70;5.78;;;34.10;30.00;;;42.73;16.30;102001.34;5051440;28;20189;-65
2023/06/07 09:52:59;;;;;;;8.68;5.68;;;34.30;29.60;;;42.97;16.39;102007.50;5054635;28;20194;-63
2023/06/07 09:55:28;;;;;;;8.32;5.72;;;34.50;30.00;;;43.40;16.19;102003.63;5053897;28;20218;-65
2023/06/07 09:57:55;;;;;;;7.63;5.07;;;34.80;29.70;;;43.67;15.72;101999.78;5035511;28;20248;-66
2023/06/07 10:00:24;;;;;;;10.35;5.22;;;35.00;28.90;;;43.84;15.58;102006.84;5035266;28;20304;-65
2023/06/07 10:02:51;;;;;;;8.38;4.65;;;35.10;28.60;;;44.05;15.48;102006.44;5043388;28;20198;-65
2023/06/07 10:05:21;;;;;;;12.02;5.45;;;35.20;28.50;;;44.05;14.61;102007.25;5043220;28;20211;-66
2023/06/07 10:07:50;;;;;;;10.05;5.30;;;35.30;28.00;;;44.18;14.73;102003.09;5037329;28;20222;-65
2023/06/07 10:10:21;;;;;;;9.45;4.93;;;35.40;28.10;;;44.34;15.15;102009.31;5038086;28;20278;-65
2023/06/07 10:12:51;;;;;;;10.13;5.07;;;35.40;28.10;;;44.57;14.88;102009.28;5037142;28;20190;-67